TX54 weather

CLOSED Moore Airpark
Palmview, Texas, United States

Public forecast

Using degrees Fahrenheit for public forecast. Weather courtesy of forecast.io.

Closest aviation weather report (METAR) to Moore Airpark

Closest report is Mc Allen Miller International Airport, 9.4 nm (17.4 km) ESE. Retrieved 2019/10/13 20:53 UTC (17 minutes ago):

KMFE 132053Z 01008KT 10SM SCT019 BKN030 26/17 A2993 RMK AO2 SLP132 T02610172 56022

Closest aviation forecast (TAF) to Moore Airpark

Closest forecast is Mc Allen Miller International Airport, 9.4 nm (17.4 km) ESE. Retrieved 2019/10/13 18:40 UTC (3 hours ago):

TAF KMFE 131738Z 1318/1418 34008KT P6SM OVC022 TEMPO 1320/1324 OVC035 FM140000 33003KT P6SM BKN035 FM140200 VRB03KT P6SM SCT250 FM141500 VRB04KT P6SM SCT040